createdAt,value
2024-01-30T00:01:02.506Z,8.90
2024-01-30T00:03:08.954Z,8.80
2024-01-30T00:05:13.072Z,8.80
2024-01-30T00:07:17.684Z,8.80
2024-01-30T00:09:22.227Z,8.80
2024-01-30T00:11:30.254Z,8.80
2024-01-30T00:13:33.926Z,8.70
2024-01-30T00:15:37.942Z,8.60
2024-01-30T00:17:42.181Z,8.60
2024-01-30T00:19:50.937Z,8.60
2024-01-30T00:21:55.347Z,8.50
2024-01-30T00:23:59.538Z,8.50
2024-01-30T00:26:04.991Z,8.50
2024-01-30T00:28:09.419Z,8.50
2024-01-30T00:30:28.593Z,8.50
2024-01-30T00:32:35.304Z,8.50
2024-01-30T00:34:41.482Z,8.50
2024-01-30T00:36:47.837Z,8.50
2024-01-30T00:55:14.435Z,8.40
2024-01-30T00:57:17.415Z,8.40
2024-01-30T00:59:30.987Z,8.30
2024-01-30T01:01:35.665Z,8.20
2024-01-30T01:04:01.098Z,8.20
2024-01-30T01:06:05.826Z,8.10
2024-01-30T01:08:13.355Z,8.10
2024-01-30T01:10:19.485Z,8.10
2024-01-30T01:12:25.674Z,8.10
2024-01-30T01:14:29.427Z,8.10
2024-01-30T01:41:23.091Z,8.10
2024-01-30T01:43:26.910Z,8.10
2024-01-30T01:45:30.846Z,8.10
2024-01-30T01:47:35.005Z,8.10
2024-01-30T01:49:39.040Z,8.10
2024-01-30T01:51:43.482Z,8.10
2024-01-30T01:53:48.097Z,8.10
2024-01-30T01:55:54.417Z,8.10
2024-01-30T01:58:00.192Z,8.00
2024-01-30T02:00:08.990Z,8.00
2024-01-30T02:02:13.239Z,8.00
2024-01-30T02:04:19.214Z,8.00
2024-01-30T02:06:23.437Z,8.00
2024-01-30T02:08:27.415Z,8.00
2024-01-30T02:10:33.550Z,8.00
2024-01-30T02:12:37.590Z,8.00
2024-01-30T02:14:50.479Z,8.00
2024-01-30T02:16:54.801Z,8.00
2024-01-30T02:49:23.038Z,7.50
2024-01-30T02:51:27.477Z,7.40
2024-01-30T02:53:30.499Z,7.30
2024-01-30T02:55:34.353Z,7.30
2024-01-30T02:57:57.863Z,7.30
2024-01-30T03:00:05.443Z,7.20
2024-01-30T03:02:09.349Z,7.20
2024-01-30T03:04:14.566Z,7.20
2024-01-30T03:06:21.702Z,7.20
2024-01-30T03:08:26.246Z,7.10
2024-01-30T03:10:30.377Z,7.10
2024-01-30T03:12:34.800Z,7.00
2024-01-30T03:14:38.992Z,7.00
2024-01-30T03:17:30.612Z,7.00
2024-01-30T03:19:35.137Z,7.00
2024-01-30T03:21:40.943Z,7.00
2024-01-30T03:23:45.293Z,7.00
2024-01-30T03:25:49.840Z,7.00
2024-01-30T03:27:53.744Z,7.00
2024-01-30T03:29:58.243Z,7.00
2024-01-30T03:32:09.548Z,7.00
2024-01-30T03:34:13.424Z,7.00
2024-01-30T03:36:18.856Z,6.90
2024-01-30T03:38:24.619Z,6.90
2024-01-30T03:40:28.630Z,7.00
2024-01-30T03:42:32.817Z,7.00
2024-01-30T04:16:26.399Z,7.00
2024-01-30T04:18:30.762Z,7.00
2024-01-30T04:20:35.445Z,7.00
2024-01-30T04:22:38.324Z,7.00
2024-01-30T04:25:32.020Z,7.00
2024-01-30T04:27:36.537Z,6.80
2024-01-30T04:29:50.193Z,6.80
2024-01-30T04:32:00.176Z,6.80
2024-01-30T04:34:03.337Z,6.70
2024-01-30T04:44:48.816Z,6.60
2024-01-30T04:46:53.656Z,6.60
2024-01-30T04:49:12.040Z,6.60
2024-01-30T04:51:17.791Z,6.60
2024-01-30T04:53:22.858Z,6.60
2024-01-30T04:55:27.483Z,6.60
2024-01-30T04:57:36.184Z,6.60
2024-01-30T04:59:39.221Z,6.60
2024-01-30T05:04:38.639Z,6.60
2024-01-30T05:06:45.091Z,6.60
2024-01-30T05:08:55.251Z,6.50
2024-01-30T05:10:59.771Z,6.50
2024-01-30T05:15:23.538Z,6.50
2024-01-30T05:17:31.037Z,6.50
2024-01-30T05:19:39.695Z,6.50
2024-01-30T05:21:46.814Z,6.50
2024-01-30T05:23:52.805Z,6.50
2024-01-30T05:26:02.450Z,6.40
2024-01-30T05:28:08.794Z,6.40
2024-01-30T05:30:27.917Z,6.30
2024-01-30T05:40:56.857Z,6.30
2024-01-30T05:43:04.648Z,6.30
2024-01-30T05:45:10.528Z,6.30
2024-01-30T05:47:16.348Z,6.30
2024-01-30T05:49:20.872Z,6.30
2024-01-30T05:51:26.511Z,6.30
2024-01-30T05:53:48.179Z,6.30
2024-01-30T05:56:06.685Z,6.30
2024-01-30T05:58:13.374Z,6.30
2024-01-30T06:03:04.641Z,6.30
2024-01-30T06:07:36.874Z,6.40
2024-01-30T06:09:48.387Z,6.40
2024-01-30T06:12:25.820Z,6.40
2024-01-30T06:14:47.928Z,6.40
2024-01-30T06:19:25.033Z,6.40
2024-01-30T06:21:37.120Z,6.40
2024-01-30T06:23:59.518Z,6.40
2024-01-30T06:26:26.818Z,6.40
2024-01-30T06:36:33.607Z,6.40
2024-01-30T06:52:35.879Z,6.50
2024-01-30T06:54:55.203Z,6.40
2024-01-30T06:57:01.091Z,6.40
2024-01-30T06:59:20.817Z,6.50
2024-01-30T07:22:10.702Z,7.00
2024-01-30T07:29:31.185Z,7.00
2024-01-30T07:34:49.864Z,7.00
2024-01-30T07:42:37.994Z,7.20
2024-01-30T07:45:10.592Z,7.40
2024-01-30T07:50:15.510Z,7.60
2024-01-30T07:56:04.141Z,7.70
2024-01-30T08:02:13.161Z,7.80
2024-01-30T08:17:33.617Z,8.00
2024-01-30T08:19:49.606Z,8.00
2024-01-30T08:21:57.529Z,7.90
2024-01-30T08:24:02.798Z,8.00
2024-01-30T08:26:23.323Z,8.10
2024-01-30T08:28:27.978Z,8.10
2024-01-30T08:30:36.669Z,8.00
2024-01-30T08:33:13.409Z,8.00
2024-01-30T08:35:48.669Z,8.00
2024-01-30T08:38:13.933Z,8.20
2024-01-30T08:40:19.370Z,8.30
2024-01-30T08:42:24.418Z,8.40
2024-01-30T08:47:43.527Z,8.70
2024-01-30T08:52:09.080Z,9.00
2024-01-30T08:54:16.479Z,9.00
2024-01-30T08:56:36.847Z,9.10
2024-01-30T08:58:44.955Z,9.00
2024-01-30T09:08:15.873Z,9.00
2024-01-30T09:11:03.222Z,9.00
2024-01-30T09:16:04.883Z,9.00
2024-01-30T09:20:37.610Z,9.00
2024-01-30T09:22:42.384Z,9.10
2024-01-30T09:24:55.102Z,9.20
2024-01-30T09:27:16.820Z,9.20
2024-01-30T09:29:25.455Z,9.30
2024-01-30T09:44:01.627Z,9.30
2024-01-30T10:46:59.183Z,10.20
2024-01-30T11:12:19.706Z,10.40
2024-01-30T11:21:14.042Z,10.60
2024-01-30T11:39:37.482Z,11.00
2024-01-30T13:26:46.794Z,14.20
2024-01-30T14:21:40.133Z,13.60
2024-01-30T15:19:18.705Z,13.20
2024-01-30T15:21:44.202Z,13.10
2024-01-30T15:24:02.517Z,13.10
2024-01-30T15:41:46.416Z,13.00
2024-01-30T15:47:26.330Z,13.00
2024-01-30T15:55:29.873Z,13.10
2024-01-30T16:05:37.983Z,13.00
2024-01-30T16:08:27.999Z,13.00
2024-01-30T16:10:55.706Z,12.90
2024-01-30T16:13:17.026Z,12.90
2024-01-30T16:18:59.280Z,13.00
2024-01-30T16:24:26.632Z,12.90
2024-01-30T16:51:03.598Z,13.00
2024-01-30T16:55:49.824Z,13.00
2024-01-30T16:58:07.495Z,13.00
2024-01-30T17:02:48.622Z,13.00
2024-01-30T17:05:23.009Z,13.10
2024-01-30T17:17:18.162Z,12.90
2024-01-30T17:21:59.147Z,12.90
2024-01-30T17:24:33.379Z,12.90
2024-01-30T17:26:45.608Z,12.80
2024-01-30T17:29:02.746Z,12.80
2024-01-30T17:59:12.381Z,12.70
2024-01-30T18:04:12.899Z,12.70
2024-01-30T18:06:37.432Z,12.70
2024-01-30T18:09:04.671Z,12.60
2024-01-30T18:11:09.998Z,12.70
2024-01-30T18:13:14.885Z,12.70
2024-01-30T18:18:11.273Z,12.70
2024-01-30T18:20:20.021Z,12.60
2024-01-30T18:22:31.020Z,12.60
2024-01-30T18:24:52.251Z,12.60
2024-01-30T18:26:58.909Z,12.60
2024-01-30T18:29:21.310Z,12.50
2024-01-30T18:31:25.302Z,12.50
2024-01-30T18:35:56.039Z,12.40
2024-01-30T18:42:27.284Z,12.50
2024-01-30T18:44:39.158Z,12.50
2024-01-30T18:46:44.324Z,12.60
2024-01-30T18:48:53.967Z,12.60
2024-01-30T18:51:01.932Z,12.60
2024-01-30T18:53:08.535Z,12.60
2024-01-30T18:55:27.711Z,12.70
2024-01-30T18:57:53.462Z,12.70
2024-01-30T19:00:05.373Z,12.80
2024-01-30T19:04:58.765Z,12.80
2024-01-30T19:07:15.074Z,12.90
2024-01-30T19:09:23.937Z,12.90
2024-01-30T19:11:30.541Z,12.90
2024-01-30T19:13:41.975Z,13.00
2024-01-30T19:15:51.628Z,13.00
2024-01-30T19:17:56.702Z,13.00
2024-01-30T19:20:12.058Z,13.00
2024-01-30T19:22:21.389Z,12.90
2024-01-30T19:24:27.783Z,12.90
2024-01-30T19:26:34.579Z,12.90
2024-01-30T19:31:14.426Z,13.00
2024-01-30T19:33:30.168Z,13.00
2024-01-30T19:35:36.515Z,13.00
2024-01-30T19:37:42.660Z,13.00
2024-01-30T19:39:50.374Z,13.00
2024-01-30T19:41:56.343Z,12.90
2024-01-30T19:44:44.104Z,12.90
2024-01-30T19:53:07.615Z,12.80
2024-01-30T19:55:13.853Z,12.80
2024-01-30T19:57:26.366Z,12.90
2024-01-30T19:59:51.328Z,12.80
2024-01-30T20:02:28.693Z,12.80
2024-01-30T20:04:51.528Z,12.80
2024-01-30T20:06:56.843Z,12.80
2024-01-30T20:09:03.707Z,12.80
2024-01-30T20:16:38.593Z,12.80
2024-01-30T20:18:43.612Z,12.80
2024-01-30T20:21:16.327Z,12.80
2024-01-30T20:23:20.254Z,12.80
2024-01-30T20:25:37.874Z,12.90
2024-01-30T20:27:41.174Z,12.90
2024-01-30T20:30:03.924Z,12.90
2024-01-30T20:32:23.471Z,12.90
2024-01-30T20:34:38.058Z,12.90
2024-01-30T20:36:49.155Z,12.90
2024-01-30T20:38:56.308Z,12.90
2024-01-30T20:41:15.698Z,12.90
2024-01-30T20:43:39.003Z,12.90
2024-01-30T20:45:46.655Z,12.90
2024-01-30T20:47:56.224Z,12.90
2024-01-30T20:50:04.480Z,12.90
2024-01-30T20:52:28.043Z,12.80
2024-01-30T20:54:35.389Z,12.90
2024-01-30T20:56:51.476Z,12.80
2024-01-30T21:00:57.830Z,12.80
2024-01-30T21:03:03.284Z,12.80
2024-01-30T21:05:15.465Z,12.90
2024-01-30T21:07:24.225Z,12.80
2024-01-30T21:09:38.548Z,12.80
2024-01-30T21:11:44.049Z,12.80
2024-01-30T21:13:58.194Z,12.80
2024-01-30T21:16:23.543Z,12.80
2024-01-30T21:18:29.867Z,12.80
2024-01-30T21:20:37.883Z,12.90
2024-01-30T21:22:43.745Z,12.90
2024-01-30T21:24:52.580Z,12.90
2024-01-30T21:26:56.367Z,13.00
2024-01-30T21:29:15.215Z,13.10
2024-01-30T21:31:33.005Z,13.10
2024-01-30T21:33:38.317Z,13.10
2024-01-30T21:35:42.588Z,13.30
2024-01-30T21:37:53.223Z,13.30
2024-01-30T21:40:00.728Z,13.30
2024-01-30T21:42:09.779Z,13.40
2024-01-30T21:44:15.366Z,13.30
2024-01-30T21:48:48.945Z,13.40
2024-01-30T21:53:13.020Z,13.60
2024-01-30T21:55:52.056Z,13.60
2024-01-30T21:57:57.903Z,13.70
2024-01-30T22:00:06.638Z,13.80
2024-01-30T22:02:20.711Z,13.90
2024-01-30T22:04:26.234Z,13.90
2024-01-30T22:06:33.779Z,14.00
2024-01-30T22:08:41.557Z,14.10
2024-01-30T22:10:54.062Z,14.00
2024-01-30T22:13:00.952Z,14.00
2024-01-30T22:23:55.732Z,13.60
2024-01-30T22:26:04.079Z,13.70
2024-01-30T22:28:10.148Z,13.70
2024-01-30T22:30:16.078Z,13.80
2024-01-30T22:32:27.456Z,13.80
2024-01-30T22:34:34.582Z,13.90
2024-01-30T22:36:40.909Z,13.90
2024-01-30T22:38:52.752Z,14.00
2024-01-30T22:40:57.799Z,13.90
2024-01-30T22:43:05.905Z,13.70
2024-01-30T22:45:14.765Z,13.50
2024-01-30T22:47:22.050Z,13.20
2024-01-30T22:49:27.687Z,13.10
2024-01-30T22:51:32.700Z,13.10
2024-01-30T22:53:43.132Z,13.10
2024-01-30T22:55:51.761Z,13.00
2024-01-30T23:10:53.670Z,13.70
2024-01-30T23:12:58.323Z,13.80
2024-01-30T23:15:03.964Z,13.80
2024-01-30T23:17:08.651Z,13.90
2024-01-30T23:19:14.079Z,14.00
2024-01-30T23:21:20.254Z,14.10
2024-01-30T23:23:25.373Z,14.10
2024-01-30T23:25:29.490Z,14.10
2024-01-30T23:27:40.441Z,14.10
2024-01-30T23:29:46.449Z,14.10
2024-01-30T23:48:22.245Z,14.40
2024-01-30T23:50:27.430Z,14.40
2024-01-30T23:52:31.522Z,14.20
2024-01-30T23:54:36.765Z,14.10
2024-01-30T23:56:42.347Z,14.10
2024-01-30T23:58:47.174Z,14.10
